createdAt,value
2022-10-20T00:00:21.643Z,981.17
2022-10-20T00:01:21.636Z,981.20
2022-10-20T00:02:21.715Z,981.21
2022-10-20T00:03:21.608Z,981.17
2022-10-20T00:04:21.610Z,981.16
2022-10-20T00:05:21.702Z,981.17
2022-10-20T00:06:21.603Z,981.08
2022-10-20T00:07:21.577Z,981.04
2022-10-20T00:08:21.585Z,980.97
2022-10-20T00:09:21.538Z,981.04
2022-10-20T00:10:21.538Z,980.96
2022-10-20T00:11:21.545Z,980.90
2022-10-20T00:12:21.533Z,980.96
2022-10-20T00:13:21.495Z,980.72
2022-10-20T00:14:21.495Z,980.96
2022-10-20T00:15:21.482Z,980.93
2022-10-20T00:16:21.481Z,980.96
2022-10-20T00:17:21.441Z,980.91
2022-10-20T00:18:21.507Z,981.04
2022-10-20T00:19:21.433Z,981.00
2022-10-20T00:20:21.415Z,981.00
2022-10-20T00:21:21.410Z,981.06
2022-10-20T00:22:21.396Z,981.06
2022-10-20T00:23:21.382Z,981.09
2022-10-20T00:24:21.417Z,981.08
2022-10-20T00:25:21.346Z,981.07
2022-10-20T00:26:21.348Z,981.11
2022-10-20T00:27:21.422Z,981.08
2022-10-20T00:28:21.373Z,981.14
2022-10-20T00:29:21.338Z,981.10
2022-10-20T00:30:22.579Z,981.07
2022-10-20T00:31:21.353Z,981.07
2022-10-20T00:32:21.342Z,981.10
2022-10-20T00:33:21.291Z,981.15
2022-10-20T00:34:21.326Z,981.15
2022-10-20T00:35:21.253Z,981.12
2022-10-20T00:36:21.241Z,981.14
2022-10-20T00:37:21.243Z,981.18
2022-10-20T00:38:21.234Z,981.14
2022-10-20T00:39:21.219Z,981.18
2022-10-20T00:40:21.261Z,981.15
2022-10-20T00:41:21.194Z,981.08
2022-10-20T00:42:21.189Z,981.13
2022-10-20T00:43:21.222Z,981.06
2022-10-20T00:44:21.149Z,981.15
2022-10-20T00:45:21.128Z,981.13
2022-10-20T00:46:21.173Z,981.14
2022-10-20T00:47:21.107Z,981.11
2022-10-20T00:48:21.132Z,981.17
2022-10-20T00:49:21.152Z,981.12
2022-10-20T00:50:21.064Z,981.12
2022-10-20T00:51:21.085Z,981.12
2022-10-20T00:52:21.053Z,981.15
2022-10-20T00:53:21.046Z,981.13
2022-10-20T00:54:21.110Z,981.17
2022-10-20T00:55:21.044Z,981.14
2022-10-20T00:56:21.030Z,981.22
2022-10-20T00:57:20.993Z,981.21
2022-10-20T00:58:21.000Z,981.19
2022-10-20T00:59:21.137Z,981.24
2022-10-20T01:00:20.986Z,981.22
2022-10-20T01:01:21.061Z,981.25
2022-10-20T01:02:21.005Z,981.17
2022-10-20T01:03:20.944Z,981.22
2022-10-20T01:04:20.944Z,981.20
2022-10-20T01:05:20.947Z,981.26
2022-10-20T01:06:20.910Z,981.21
2022-10-20T01:07:20.930Z,981.19
2022-10-20T01:08:20.875Z,981.16
2022-10-20T01:09:20.915Z,981.23
2022-10-20T01:10:20.943Z,981.26
2022-10-20T01:11:20.888Z,981.20
2022-10-20T01:12:21.777Z,981.17
2022-10-20T01:13:20.849Z,981.13
2022-10-20T01:14:20.830Z,981.13
2022-10-20T01:15:20.833Z,981.09
2022-10-20T01:16:20.905Z,981.06
2022-10-20T01:17:20.770Z,981.08
2022-10-20T01:18:20.764Z,981.06
2022-10-20T01:19:20.756Z,981.04
2022-10-20T01:20:20.731Z,981.01
2022-10-20T01:21:20.748Z,980.98
2022-10-20T01:22:20.749Z,981.03
2022-10-20T01:23:20.707Z,981.03
2022-10-20T01:24:20.753Z,981.04
2022-10-20T01:25:20.832Z,980.98
2022-10-20T01:26:20.685Z,981.01
2022-10-20T01:27:20.676Z,980.98
2022-10-20T01:28:20.679Z,981.06
2022-10-20T01:29:20.644Z,981.04
2022-10-20T01:30:20.664Z,981.01
2022-10-20T01:31:20.638Z,981.01
2022-10-20T01:32:20.601Z,980.96
2022-10-20T01:33:20.656Z,981.03
2022-10-20T01:34:20.619Z,981.02
2022-10-20T01:35:20.591Z,981.09
2022-10-20T01:36:20.579Z,981.12
2022-10-20T01:37:34.047Z,981.15
2022-10-20T01:38:20.550Z,981.10
2022-10-20T01:39:20.535Z,981.12
2022-10-20T01:40:20.545Z,981.13
2022-10-20T01:41:20.537Z,981.17
2022-10-20T01:42:20.524Z,981.15
2022-10-20T01:43:20.480Z,981.21
2022-10-20T01:44:20.511Z,981.18
2022-10-20T01:45:20.549Z,981.19
2022-10-20T01:46:20.567Z,981.23
2022-10-20T01:47:20.432Z,981.23
2022-10-20T01:48:20.480Z,981.20
2022-10-20T01:49:20.426Z,981.16
2022-10-20T01:50:20.419Z,981.19
2022-10-20T01:51:20.444Z,981.16
2022-10-20T01:52:20.389Z,981.16
2022-10-20T01:53:20.390Z,981.21
2022-10-20T01:54:20.388Z,981.21
2022-10-20T01:55:20.349Z,981.19
2022-10-20T01:56:20.351Z,981.16
2022-10-20T01:57:20.334Z,981.27
2022-10-20T01:58:20.322Z,981.17
2022-10-20T01:59:20.331Z,981.17
2022-10-20T02:00:20.336Z,981.22
2022-10-20T02:01:20.355Z,981.23
2022-10-20T02:02:20.263Z,981.26
2022-10-20T02:03:20.262Z,981.29
2022-10-20T02:04:20.310Z,981.31
2022-10-20T02:05:20.251Z,981.30
2022-10-20T02:06:20.231Z,981.30
2022-10-20T02:07:20.268Z,981.32
2022-10-20T02:08:20.230Z,981.32
2022-10-20T02:09:20.227Z,981.30
2022-10-20T02:10:20.212Z,981.32
2022-10-20T02:11:20.191Z,981.32
2022-10-20T02:12:20.206Z,981.28
2022-10-20T02:13:20.166Z,981.27
2022-10-20T02:14:20.133Z,981.26
2022-10-20T02:15:20.219Z,981.21
2022-10-20T02:16:20.144Z,981.24
2022-10-20T02:17:20.093Z,981.22
2022-10-20T02:18:20.104Z,981.24
2022-10-20T02:19:20.105Z,981.25
2022-10-20T02:20:20.075Z,981.24
2022-10-20T02:21:20.087Z,981.23
2022-10-20T02:22:20.073Z,981.21
2022-10-20T02:23:20.053Z,981.24
2022-10-20T02:24:20.068Z,981.26
2022-10-20T02:25:20.002Z,981.29
2022-10-20T02:26:20.053Z,981.30
2022-10-20T02:27:20.020Z,981.28
2022-10-20T02:28:19.994Z,981.26
2022-10-20T02:29:19.981Z,981.26
2022-10-20T02:30:19.963Z,981.25
2022-10-20T02:31:19.940Z,981.26
2022-10-20T02:32:19.948Z,981.24
2022-10-20T02:33:19.945Z,981.23
2022-10-20T02:34:19.927Z,981.22
2022-10-20T02:35:19.908Z,981.26
2022-10-20T02:36:19.972Z,981.25
2022-10-20T02:37:19.890Z,981.29
2022-10-20T02:38:19.893Z,981.26
2022-10-20T02:39:19.871Z,981.27
2022-10-20T02:40:19.884Z,981.22
2022-10-20T02:41:19.854Z,981.25
2022-10-20T02:42:19.855Z,981.25
2022-10-20T02:43:19.822Z,981.25
2022-10-20T02:44:20.771Z,981.24
2022-10-20T02:45:19.815Z,981.23
2022-10-20T02:46:19.798Z,981.21
2022-10-20T02:47:19.827Z,981.20
2022-10-20T02:48:19.748Z,981.24
2022-10-20T02:49:19.764Z,981.23
2022-10-20T02:50:19.725Z,981.21
2022-10-20T02:51:19.734Z,981.22
2022-10-20T02:52:19.700Z,981.22
2022-10-20T02:53:19.713Z,981.19
2022-10-20T02:54:19.692Z,981.17
2022-10-20T02:55:20.264Z,981.22
2022-10-20T02:56:19.674Z,981.15
2022-10-20T02:57:19.647Z,981.12
2022-10-20T02:58:19.679Z,981.11
2022-10-20T02:59:19.639Z,981.15
2022-10-20T03:00:19.627Z,981.09
2022-10-20T03:01:19.656Z,981.10
2022-10-20T03:02:19.599Z,981.09
2022-10-20T03:03:19.618Z,981.12
2022-10-20T03:04:19.667Z,981.24
2022-10-20T03:05:19.558Z,981.22
2022-10-20T03:06:19.593Z,981.18
2022-10-20T03:07:19.558Z,981.25
2022-10-20T03:08:19.550Z,981.16
2022-10-20T03:09:19.538Z,981.22
2022-10-20T03:10:19.509Z,981.23
2022-10-20T03:11:19.556Z,981.24
2022-10-20T03:12:19.510Z,981.18
2022-10-20T03:13:19.589Z,981.17
2022-10-20T03:14:19.467Z,981.22
2022-10-20T03:15:19.443Z,981.18
2022-10-20T03:16:19.462Z,981.21
2022-10-20T03:17:19.439Z,981.20
2022-10-20T03:18:19.431Z,981.20
2022-10-20T03:19:19.408Z,981.17
2022-10-20T03:20:19.390Z,981.18
2022-10-20T03:21:19.413Z,981.17
2022-10-20T03:22:19.465Z,981.17
2022-10-20T03:23:20.174Z,981.14
2022-10-20T03:24:19.356Z,981.11
2022-10-20T03:25:19.461Z,981.14
2022-10-20T03:26:19.321Z,981.09
2022-10-20T03:27:19.350Z,981.05
2022-10-20T03:28:19.311Z,981.01
2022-10-20T03:29:19.302Z,981.00
2022-10-20T03:30:19.339Z,981.02
2022-10-20T03:31:19.316Z,980.99
2022-10-20T03:32:19.301Z,980.98
2022-10-20T03:33:19.303Z,980.99
2022-10-20T03:34:19.248Z,981.03
2022-10-20T03:35:19.272Z,981.02
2022-10-20T03:36:19.264Z,981.02
2022-10-20T03:37:19.235Z,981.02
2022-10-20T03:38:19.213Z,980.99
2022-10-20T03:39:19.209Z,980.97
2022-10-20T03:40:19.208Z,981.05
2022-10-20T03:41:19.191Z,981.01
2022-10-20T03:42:19.162Z,981.08
2022-10-20T03:43:19.179Z,981.04
2022-10-20T03:44:19.138Z,980.97
2022-10-20T03:45:19.123Z,981.07
2022-10-20T03:46:19.106Z,981.03
2022-10-20T03:47:19.113Z,981.01
2022-10-20T03:48:19.126Z,981.05
2022-10-20T03:49:19.074Z,981.01
2022-10-20T03:50:19.070Z,981.07
2022-10-20T03:51:19.045Z,981.09
2022-10-20T03:52:19.042Z,981.08
2022-10-20T03:53:19.071Z,981.11
2022-10-20T03:54:19.018Z,981.12
2022-10-20T03:55:19.040Z,981.09
2022-10-20T03:56:19.025Z,981.11
2022-10-20T03:57:18.986Z,981.13
2022-10-20T03:58:18.969Z,981.12
2022-10-20T03:59:18.957Z,981.08
2022-10-20T04:00:18.940Z,981.07
2022-10-20T04:01:18.974Z,981.07
2022-10-20T04:02:18.960Z,980.96
2022-10-20T04:03:18.927Z,980.99
2022-10-20T04:04:18.930Z,980.98
2022-10-20T04:05:18.889Z,980.98
2022-10-20T04:06:18.894Z,980.99
2022-10-20T04:07:18.870Z,980.97
2022-10-20T04:08:18.863Z,980.98
2022-10-20T04:09:18.857Z,981.01
2022-10-20T04:10:18.849Z,981.03
2022-10-20T04:11:18.893Z,981.07
2022-10-20T04:12:18.827Z,981.04
2022-10-20T04:13:18.801Z,981.06
2022-10-20T04:14:18.875Z,981.10
2022-10-20T04:15:18.793Z,981.11
2022-10-20T04:16:18.764Z,981.13
2022-10-20T04:17:18.754Z,981.12
2022-10-20T04:18:18.755Z,981.13
2022-10-20T04:19:18.746Z,981.18
2022-10-20T04:20:18.747Z,981.15
2022-10-20T04:21:18.746Z,981.16
2022-10-20T04:22:18.722Z,981.18
2022-10-20T04:23:18.749Z,981.19
2022-10-20T04:24:18.673Z,981.14
2022-10-20T04:25:18.759Z,981.17
2022-10-20T04:26:18.669Z,981.16
2022-10-20T04:27:18.673Z,981.21
2022-10-20T04:28:18.627Z,981.16
2022-10-20T04:29:18.687Z,981.18
2022-10-20T04:30:18.638Z,981.16
2022-10-20T04:31:18.602Z,981.23
2022-10-20T04:32:18.607Z,981.20
2022-10-20T04:33:18.591Z,981.19
2022-10-20T04:34:18.567Z,981.20
2022-10-20T04:35:18.584Z,981.22
2022-10-20T04:36:18.549Z,981.19
2022-10-20T04:37:18.542Z,981.17
2022-10-20T04:38:18.565Z,981.19
2022-10-20T04:39:18.542Z,981.15
2022-10-20T04:40:18.554Z,981.16
2022-10-20T04:41:18.499Z,981.15
2022-10-20T04:42:18.489Z,981.13
2022-10-20T04:43:18.488Z,981.07
2022-10-20T04:44:18.485Z,981.12
2022-10-20T04:45:18.479Z,981.10
2022-10-20T04:46:18.897Z,981.10
2022-10-20T04:47:18.466Z,981.04
2022-10-20T04:48:18.436Z,981.06
2022-10-20T04:49:18.455Z,981.04
2022-10-20T04:50:18.433Z,981.04
2022-10-20T04:51:18.399Z,981.08
2022-10-20T04:52:18.395Z,981.05
2022-10-20T04:53:19.359Z,981.09
2022-10-20T04:54:18.358Z,981.02
2022-10-20T04:55:18.326Z,981.05
2022-10-20T04:56:18.362Z,981.03
2022-10-20T04:57:18.306Z,981.03
2022-10-20T04:58:18.319Z,981.01
2022-10-20T04:59:18.313Z,981.04
2022-10-20T05:00:18.285Z,981.03
2022-10-20T05:01:18.363Z,981.11
2022-10-20T05:02:18.255Z,981.06
2022-10-20T05:03:18.275Z,981.02
2022-10-20T05:04:18.242Z,981.07
2022-10-20T05:05:18.232Z,981.11
2022-10-20T05:06:18.381Z,981.07
2022-10-20T05:07:18.228Z,981.03
2022-10-20T05:08:18.273Z,981.08
2022-10-20T05:09:18.176Z,981.08
2022-10-20T05:10:18.154Z,981.05
2022-10-20T05:11:18.152Z,981.11
2022-10-20T05:12:18.139Z,981.14
2022-10-20T05:13:18.162Z,981.12
2022-10-20T05:14:18.139Z,981.16
2022-10-20T05:15:18.160Z,981.15
2022-10-20T05:16:18.103Z,981.22
2022-10-20T05:17:18.860Z,981.22
2022-10-20T05:18:18.395Z,981.22
2022-10-20T05:19:18.084Z,981.18
2022-10-20T05:20:18.053Z,981.16
2022-10-20T05:21:18.069Z,981.15
2022-10-20T05:22:18.018Z,981.20
2022-10-20T05:23:18.021Z,981.16
2022-10-20T05:24:20.908Z,981.20
2022-10-20T05:25:35.580Z,981.20
2022-10-20T05:26:18.085Z,981.22
2022-10-20T05:27:17.972Z,981.22
2022-10-20T05:28:17.951Z,981.23
2022-10-20T05:29:17.954Z,981.19
2022-10-20T05:30:18.434Z,981.17
2022-10-20T05:31:17.920Z,981.18
2022-10-20T05:32:17.918Z,981.12
2022-10-20T05:33:17.907Z,981.13
2022-10-20T05:34:17.909Z,981.15
2022-10-20T05:35:17.957Z,981.11
2022-10-20T05:36:20.944Z,981.16
2022-10-20T05:37:17.849Z,981.11
2022-10-20T05:38:17.910Z,981.13
2022-10-20T05:39:17.890Z,981.15
2022-10-20T05:40:17.822Z,981.17
2022-10-20T05:41:17.839Z,981.12
2022-10-20T05:42:17.913Z,981.14
2022-10-20T05:43:17.821Z,981.14
2022-10-20T05:44:17.793Z,981.17
2022-10-20T05:45:18.072Z,981.15
2022-10-20T05:46:17.772Z,981.18
2022-10-20T05:47:17.776Z,981.17
2022-10-20T05:48:17.777Z,981.19
2022-10-20T05:49:17.777Z,981.19
2022-10-20T05:50:17.738Z,981.24
2022-10-20T05:51:17.746Z,981.27
2022-10-20T05:52:17.706Z,981.27
2022-10-20T05:53:17.722Z,981.31
2022-10-20T05:54:17.749Z,981.29
2022-10-20T05:55:17.731Z,981.33
2022-10-20T05:56:17.655Z,981.33
2022-10-20T05:57:17.697Z,981.32
2022-10-20T05:58:19.622Z,981.33
2022-10-20T05:59:17.654Z,981.37
2022-10-20T06:00:17.680Z,981.29
2022-10-20T06:01:17.691Z,981.32
2022-10-20T06:02:17.579Z,981.34
2022-10-20T06:03:19.066Z,981.32
2022-10-20T06:04:18.392Z,981.33
2022-10-20T06:05:17.564Z,981.30
2022-10-20T06:06:17.563Z,981.32
2022-10-20T06:07:17.547Z,981.27
2022-10-20T06:08:17.516Z,981.25
2022-10-20T06:09:17.578Z,981.30
2022-10-20T06:10:17.497Z,981.29
2022-10-20T06:11:17.472Z,981.26
2022-10-20T06:12:17.531Z,981.21
2022-10-20T06:13:17.450Z,981.21
2022-10-20T06:14:17.468Z,981.29
2022-10-20T06:15:17.476Z,981.24
2022-10-20T06:16:17.423Z,981.25
2022-10-20T06:17:17.485Z,981.27
2022-10-20T06:18:17.452Z,981.29
2022-10-20T06:19:17.394Z,981.31
2022-10-20T06:20:17.396Z,981.33
2022-10-20T06:21:17.404Z,981.33
2022-10-20T06:22:17.412Z,981.30
2022-10-20T06:23:17.385Z,981.30
2022-10-20T06:24:17.338Z,981.30
2022-10-20T06:25:17.326Z,981.31
2022-10-20T06:26:17.328Z,981.34
2022-10-20T06:27:17.381Z,981.39
2022-10-20T06:28:17.309Z,981.32
2022-10-20T06:29:17.320Z,981.35
2022-10-20T06:30:17.271Z,981.35
2022-10-20T06:31:17.269Z,981.34
2022-10-20T06:32:17.245Z,981.36
2022-10-20T06:33:17.333Z,981.34
2022-10-20T06:34:17.241Z,981.30
2022-10-20T06:35:17.222Z,981.35
2022-10-20T06:36:17.255Z,981.27
2022-10-20T06:37:17.191Z,981.25
2022-10-20T06:38:17.186Z,981.30
2022-10-20T06:39:17.238Z,981.29
2022-10-20T06:40:17.147Z,981.29
2022-10-20T06:41:17.139Z,981.31
2022-10-20T06:42:18.033Z,981.34
2022-10-20T06:43:17.155Z,981.30
2022-10-20T06:44:17.100Z,981.32
2022-10-20T06:45:17.888Z,981.38
2022-10-20T06:46:17.109Z,981.40
2022-10-20T06:47:17.089Z,981.42
2022-10-20T06:48:17.139Z,981.38
2022-10-20T06:49:17.098Z,981.40
2022-10-20T06:50:17.094Z,981.40
2022-10-20T06:51:17.794Z,981.39
2022-10-20T06:52:17.189Z,981.40
2022-10-20T06:53:17.065Z,981.40
2022-10-20T06:54:17.014Z,981.42
2022-10-20T06:55:17.054Z,981.42
2022-10-20T06:56:17.007Z,981.36
2022-10-20T06:57:16.986Z,981.45
2022-10-20T06:58:17.009Z,981.44
2022-10-20T06:59:16.937Z,981.48
2022-10-20T07:00:17.008Z,981.43
2022-10-20T07:01:16.970Z,981.49
2022-10-20T07:02:17.020Z,981.49
2022-10-20T07:03:16.941Z,981.51
2022-10-20T07:04:16.945Z,981.44
2022-10-20T07:05:16.957Z,981.51
2022-10-20T07:06:16.946Z,981.44
2022-10-20T07:07:16.896Z,981.48
2022-10-20T07:08:16.968Z,981.49
2022-10-20T07:09:16.993Z,981.45
2022-10-20T07:10:16.943Z,981.44
2022-10-20T07:11:16.929Z,981.42
2022-10-20T07:12:16.992Z,981.42
2022-10-20T07:13:16.864Z,981.43
2022-10-20T07:14:16.920Z,981.41
2022-10-20T07:15:17.636Z,981.36
2022-10-20T07:16:16.840Z,981.38
2022-10-20T07:17:16.914Z,981.39
2022-10-20T07:18:17.202Z,981.41
2022-10-20T07:19:16.739Z,981.42
2022-10-20T07:20:16.749Z,981.44
2022-10-20T07:21:16.702Z,981.49
2022-10-20T07:22:16.706Z,981.47
2022-10-20T07:23:16.755Z,981.52
2022-10-20T07:24:16.695Z,981.47
2022-10-20T07:25:16.669Z,981.48
2022-10-20T07:26:16.683Z,981.51
2022-10-20T07:27:16.688Z,981.50
2022-10-20T07:28:16.616Z,981.49
2022-10-20T07:29:16.651Z,981.56
2022-10-20T07:30:16.600Z,981.52
2022-10-20T07:31:16.667Z,981.53
2022-10-20T07:32:16.586Z,981.52
2022-10-20T07:33:16.621Z,981.56
2022-10-20T07:34:26.397Z,981.58
2022-10-20T07:35:16.587Z,981.61
2022-10-20T07:36:16.543Z,981.57
2022-10-20T07:37:16.583Z,981.60
2022-10-20T07:38:16.727Z,981.67
2022-10-20T07:39:16.817Z,981.62
2022-10-20T07:40:16.539Z,981.60
2022-10-20T07:41:16.498Z,981.55
2022-10-20T07:42:16.583Z,981.55
2022-10-20T07:43:16.472Z,981.54
2022-10-20T07:44:16.582Z,981.57
2022-10-20T07:45:16.426Z,981.61
2022-10-20T07:46:16.432Z,981.60
2022-10-20T07:47:16.447Z,981.60
2022-10-20T07:48:16.404Z,981.61
2022-10-20T07:50:16.381Z,981.66
2022-10-20T07:51:16.427Z,981.62
2022-10-20T07:52:16.502Z,981.58
2022-10-20T07:53:16.410Z,981.57
2022-10-20T07:54:16.335Z,981.58
2022-10-20T07:55:32.198Z,981.58
2022-10-20T07:56:16.356Z,981.60
2022-10-20T07:57:16.309Z,981.62
2022-10-20T07:58:16.360Z,981.64
2022-10-20T07:59:16.295Z,981.65
2022-10-20T08:00:16.284Z,981.57
2022-10-20T08:01:16.520Z,981.60
2022-10-20T08:02:16.396Z,981.58
2022-10-20T08:03:16.322Z,981.58
2022-10-20T08:04:16.242Z,981.58
2022-10-20T08:05:16.199Z,981.61
2022-10-20T08:06:16.289Z,981.60
2022-10-20T08:07:16.212Z,981.58
2022-10-20T08:08:16.246Z,981.62
2022-10-20T08:09:16.255Z,981.61
2022-10-20T08:10:16.148Z,981.58
2022-10-20T08:11:16.143Z,981.54
2022-10-20T08:12:16.160Z,981.58
2022-10-20T08:13:16.182Z,981.57
2022-10-20T08:14:16.111Z,981.64
2022-10-20T08:15:17.167Z,981.60
2022-10-20T08:16:16.244Z,981.68
2022-10-20T08:17:16.127Z,981.65
2022-10-20T08:18:16.159Z,981.67
2022-10-20T08:19:21.023Z,981.60
2022-10-20T08:20:16.229Z,981.64
2022-10-20T08:21:16.018Z,981.59
2022-10-20T08:22:16.076Z,981.60
2022-10-20T08:23:16.069Z,981.58
2022-10-20T08:24:16.065Z,981.59
2022-10-20T08:25:16.077Z,981.54
2022-10-20T08:26:16.017Z,981.57
2022-10-20T08:27:16.067Z,981.57
2022-10-20T08:28:16.588Z,981.57
2022-10-20T08:29:15.991Z,981.57
2022-10-20T08:30:24.351Z,981.55
2022-10-20T08:31:15.904Z,981.51
2022-10-20T08:32:15.958Z,981.48
2022-10-20T08:33:15.920Z,981.46
2022-10-20T08:34:15.961Z,981.48
2022-10-20T08:35:15.981Z,981.50
2022-10-20T08:36:15.873Z,981.53
2022-10-20T08:37:15.867Z,981.55
2022-10-20T08:38:15.867Z,981.57
2022-10-20T08:39:15.826Z,981.51
2022-10-20T08:40:15.878Z,981.52
2022-10-20T08:41:15.831Z,981.53
2022-10-20T08:42:15.850Z,981.53
2022-10-20T08:43:15.792Z,981.49
2022-10-20T08:44:15.854Z,981.54
2022-10-20T08:45:15.767Z,981.51
2022-10-20T08:46:15.903Z,981.54
2022-10-20T08:47:15.765Z,981.49
2022-10-20T08:48:15.719Z,981.46
2022-10-20T08:49:15.720Z,981.46
2022-10-20T08:50:15.734Z,981.51
2022-10-20T08:51:16.529Z,981.47
2022-10-20T08:52:15.713Z,981.51
2022-10-20T08:53:15.720Z,981.49
2022-10-20T08:54:15.656Z,981.49
2022-10-20T08:55:15.724Z,981.47
2022-10-20T08:56:15.642Z,981.44
2022-10-20T08:57:15.683Z,981.42
2022-10-20T08:58:15.651Z,981.47
2022-10-20T08:59:15.645Z,981.46
2022-10-20T09:00:15.703Z,981.43
2022-10-20T09:01:15.722Z,981.48
2022-10-20T09:02:15.648Z,981.51
2022-10-20T09:03:15.743Z,981.43
2022-10-20T09:04:15.609Z,981.40
2022-10-20T09:05:18.402Z,981.39
2022-10-20T09:06:15.551Z,981.43
2022-10-20T09:07:15.565Z,981.38
2022-10-20T09:08:15.526Z,981.34
2022-10-20T09:09:15.523Z,981.35
2022-10-20T09:10:15.557Z,981.36
2022-10-20T09:11:15.521Z,981.37
2022-10-20T09:12:15.502Z,981.36
2022-10-20T09:13:15.486Z,981.38
2022-10-20T09:14:15.550Z,981.34
2022-10-20T09:15:15.427Z,981.38
2022-10-20T09:16:23.237Z,981.35
2022-10-20T09:17:15.498Z,981.36
2022-10-20T09:18:15.479Z,981.34
2022-10-20T09:19:15.487Z,981.37
2022-10-20T09:20:15.413Z,981.35
2022-10-20T09:21:15.363Z,981.34
2022-10-20T09:22:15.393Z,981.32
2022-10-20T09:23:35.432Z,981.29
2022-10-20T09:24:15.385Z,981.26
2022-10-20T09:25:15.303Z,981.24
2022-10-20T09:26:25.030Z,981.22
2022-10-20T09:27:15.322Z,981.27
2022-10-20T09:28:15.383Z,981.26
2022-10-20T09:29:15.436Z,981.30
2022-10-20T09:30:15.287Z,981.28
2022-10-20T09:31:15.239Z,981.26
2022-10-20T09:32:44.337Z,981.20
2022-10-20T09:33:15.236Z,981.25
2022-10-20T09:34:15.366Z,981.27
2022-10-20T09:35:15.202Z,981.26
2022-10-20T09:36:15.187Z,981.28
2022-10-20T09:37:15.207Z,981.25
2022-10-20T09:38:15.161Z,981.24
2022-10-20T09:39:15.271Z,981.23
2022-10-20T09:40:15.179Z,981.23
2022-10-20T09:41:15.138Z,981.27
2022-10-20T09:42:15.235Z,981.19
2022-10-20T09:43:15.233Z,981.23
2022-10-20T09:44:15.226Z,981.20
2022-10-20T09:45:15.100Z,981.17
2022-10-20T09:46:15.089Z,981.18
2022-10-20T09:47:15.083Z,981.17
2022-10-20T09:48:15.089Z,981.13
2022-10-20T09:49:15.125Z,981.23
2022-10-20T09:50:15.060Z,981.17
2022-10-20T09:51:15.015Z,981.20
2022-10-20T09:52:15.107Z,981.19
2022-10-20T09:53:14.996Z,981.19
2022-10-20T09:54:14.988Z,981.18
2022-10-20T09:55:15.051Z,981.22
2022-10-20T09:56:15.031Z,981.22
2022-10-20T09:57:14.956Z,981.17
2022-10-20T09:58:17.166Z,981.13
2022-10-20T09:59:14.928Z,981.18
2022-10-20T10:00:35.856Z,981.14
2022-10-20T10:01:15.035Z,981.13
2022-10-20T10:02:14.915Z,981.17
2022-10-20T10:03:14.873Z,981.15
2022-10-20T10:04:14.884Z,981.15
2022-10-20T10:05:14.883Z,981.10
2022-10-20T10:06:14.878Z,981.08
2022-10-20T10:07:15.606Z,981.06
2022-10-20T10:08:14.884Z,981.11
2022-10-20T10:09:14.922Z,981.14
2022-10-20T10:10:14.814Z,981.12
2022-10-20T10:11:14.820Z,981.10
2022-10-20T10:12:14.769Z,981.10
2022-10-20T10:13:14.778Z,981.13
2022-10-20T10:14:14.802Z,981.11
2022-10-20T10:15:14.797Z,981.14
2022-10-20T10:16:15.043Z,981.10
2022-10-20T10:17:14.838Z,981.11
2022-10-20T10:18:14.763Z,981.04
2022-10-20T10:20:14.715Z,981.04
2022-10-20T10:21:14.680Z,981.00
2022-10-20T10:22:14.687Z,980.98
2022-10-20T10:23:14.678Z,981.04
2022-10-20T10:24:14.688Z,981.06
2022-10-20T10:25:14.645Z,981.04
2022-10-20T10:26:14.613Z,981.06
2022-10-20T10:27:14.607Z,981.09
2022-10-20T10:28:15.131Z,981.06
2022-10-20T10:29:14.626Z,981.09
2022-10-20T10:30:14.596Z,981.06
2022-10-20T10:31:14.605Z,981.05
2022-10-20T10:32:14.580Z,981.06
2022-10-20T10:33:14.548Z,981.07
2022-10-20T10:34:14.543Z,981.08
2022-10-20T10:35:14.577Z,981.03
2022-10-20T10:36:14.504Z,981.05
2022-10-20T10:37:14.582Z,980.96
2022-10-20T10:38:14.544Z,980.99
2022-10-20T10:39:14.466Z,980.98
2022-10-20T10:40:14.632Z,980.93
2022-10-20T10:41:14.495Z,980.95
2022-10-20T10:42:14.496Z,980.94
2022-10-20T10:43:14.504Z,980.94
2022-10-20T10:44:15.412Z,980.96
2022-10-20T10:45:14.639Z,980.93
2022-10-20T10:46:14.428Z,980.97
2022-10-20T10:47:14.427Z,980.93
2022-10-20T10:48:14.377Z,980.92
2022-10-20T10:49:14.506Z,980.89
2022-10-20T10:50:14.563Z,980.85
2022-10-20T10:51:14.408Z,980.84
2022-10-20T10:52:14.335Z,980.84
2022-10-20T10:53:14.329Z,980.90
2022-10-20T10:54:14.303Z,980.78
2022-10-20T10:55:21.298Z,980.87
2022-10-20T10:56:14.375Z,980.79
2022-10-20T10:57:14.336Z,980.79
2022-10-20T10:59:14.832Z,980.77
2022-10-20T11:00:14.354Z,980.77
2022-10-20T11:01:14.295Z,980.73
2022-10-20T11:02:14.672Z,980.77
2022-10-20T11:03:14.283Z,980.82
2022-10-20T11:04:14.272Z,980.81
2022-10-20T11:06:14.274Z,980.73
2022-10-20T11:07:15.086Z,980.77
2022-10-20T11:08:14.239Z,980.74
2022-10-20T11:09:14.155Z,980.74
2022-10-20T11:10:14.186Z,980.78
2022-10-20T11:11:14.258Z,980.75
2022-10-20T11:12:14.212Z,980.74
2022-10-20T11:13:14.086Z,980.74
2022-10-20T11:14:14.729Z,980.74
2022-10-20T11:15:14.064Z,980.72
2022-10-20T11:16:14.055Z,980.71
2022-10-20T11:17:14.658Z,980.69
2022-10-20T11:18:14.053Z,980.71
2022-10-20T11:19:14.057Z,980.69
2022-10-20T11:20:14.035Z,980.67
2022-10-20T11:21:14.006Z,980.74
2022-10-20T11:22:14.770Z,980.70
2022-10-20T11:23:14.577Z,980.69
2022-10-20T11:24:13.977Z,980.68
2022-10-20T11:25:13.984Z,980.64
2022-10-20T11:26:14.008Z,980.62
2022-10-20T11:27:14.005Z,980.58
2022-10-20T11:28:14.018Z,980.63
2022-10-20T11:29:13.924Z,980.60
2022-10-20T11:30:13.991Z,980.58
2022-10-20T11:31:13.918Z,980.57
2022-10-20T11:32:13.907Z,980.55
2022-10-20T11:33:13.904Z,980.53
2022-10-20T11:34:13.886Z,980.51
2022-10-20T11:35:13.943Z,980.49
2022-10-20T11:36:13.862Z,980.47
2022-10-20T11:37:13.819Z,980.45
2022-10-20T11:38:13.887Z,980.37
2022-10-20T11:39:13.792Z,980.43
2022-10-20T11:40:13.826Z,980.46
2022-10-20T11:41:13.822Z,980.36
2022-10-20T11:42:13.757Z,980.37
2022-10-20T11:43:13.836Z,980.39
2022-10-20T11:44:13.794Z,980.34
2022-10-20T11:45:13.759Z,980.35
2022-10-20T11:46:13.761Z,980.38
2022-10-20T11:47:13.745Z,980.33
2022-10-20T11:48:13.727Z,980.34
2022-10-20T11:49:13.740Z,980.37
2022-10-20T11:50:13.726Z,980.28
2022-10-20T11:51:13.667Z,980.27
2022-10-20T11:52:13.673Z,980.25
2022-10-20T11:53:13.681Z,980.31
2022-10-20T11:54:13.649Z,980.33
2022-10-20T11:55:13.665Z,980.29
2022-10-20T11:56:13.992Z,980.27
2022-10-20T11:57:13.666Z,980.25
2022-10-20T11:58:13.687Z,980.27
2022-10-20T11:59:16.014Z,980.21
2022-10-20T12:00:13.746Z,980.23
2022-10-20T12:01:13.578Z,980.26
2022-10-20T12:02:13.789Z,980.29
2022-10-20T12:03:13.580Z,980.27
2022-10-20T12:04:13.566Z,980.22
2022-10-20T12:05:13.507Z,980.20
2022-10-20T12:06:13.489Z,980.25
2022-10-20T12:07:13.485Z,980.27
2022-10-20T12:08:30.637Z,980.29
2022-10-20T12:09:13.543Z,980.28
2022-10-20T12:10:13.438Z,980.25
2022-10-20T12:11:13.435Z,980.27
2022-10-20T12:12:13.440Z,980.21
2022-10-20T12:13:13.534Z,980.21
2022-10-20T12:14:13.444Z,980.24
2022-10-20T12:15:17.465Z,980.20
2022-10-20T12:16:13.383Z,980.19
2022-10-20T12:17:13.395Z,980.14
2022-10-20T12:18:13.354Z,980.12
2022-10-20T12:19:13.431Z,980.11
2022-10-20T12:20:13.330Z,980.12
2022-10-20T12:21:13.341Z,980.18
2022-10-20T12:22:13.356Z,980.11
2022-10-20T12:23:13.318Z,980.15
2022-10-20T12:24:13.304Z,980.12
2022-10-20T12:25:13.263Z,980.14
2022-10-20T12:26:13.281Z,980.10
2022-10-20T12:27:13.274Z,980.08
2022-10-20T12:28:13.252Z,980.06
2022-10-20T12:29:13.420Z,980.05
2022-10-20T12:30:13.224Z,980.02
2022-10-20T12:31:13.297Z,979.98
2022-10-20T12:32:13.218Z,980.02